createdAt,value
2023-02-07T00:01:24.214Z,29.87
2023-02-07T00:03:51.464Z,27.97
2023-02-07T00:06:22.691Z,26.57
2023-02-07T00:08:49.870Z,22.00
2023-02-07T00:11:20.172Z,25.10
2023-02-07T00:13:50.432Z,27.27
2023-02-07T00:16:17.331Z,27.77
2023-02-07T00:18:44.430Z,23.70
2023-02-07T00:21:16.492Z,27.63
2023-02-07T00:23:44.127Z,22.33
2023-02-07T00:26:11.804Z,28.83
2023-02-07T00:28:39.655Z,27.63
2023-02-07T00:31:11.406Z,25.83
2023-02-07T00:33:39.756Z,24.67
2023-02-07T00:36:11.766Z,25.80
2023-02-07T00:38:38.529Z,21.13
2023-02-07T00:41:05.544Z,21.70
2023-02-07T00:43:32.445Z,24.97
2023-02-07T00:46:00.878Z,23.03
2023-02-07T00:48:28.866Z,25.57
2023-02-07T00:50:55.524Z,29.53
2023-02-07T00:53:22.383Z,25.07
2023-02-07T00:55:49.086Z,21.47
2023-02-07T00:58:15.846Z,25.93
2023-02-07T01:00:42.516Z,27.63
2023-02-07T01:03:09.754Z,31.23
2023-02-07T01:05:36.836Z,24.27
2023-02-07T01:08:04.299Z,21.97
2023-02-07T01:10:31.562Z,26.33
2023-02-07T01:12:58.313Z,20.97
2023-02-07T01:15:25.619Z,23.07
2023-02-07T01:17:52.869Z,21.50
2023-02-07T01:20:19.862Z,32.07
2023-02-07T01:22:46.546Z,22.20
2023-02-07T01:25:13.172Z,27.03
2023-02-07T01:27:39.870Z,18.47
2023-02-07T01:30:07.187Z,24.73
2023-02-07T01:32:34.027Z,23.03
2023-02-07T01:35:01.006Z,23.90
2023-02-07T01:37:27.856Z,23.73
2023-02-07T01:39:55.091Z,22.20
2023-02-07T01:42:24.430Z,21.87
2023-02-07T01:44:50.962Z,27.77
2023-02-07T01:47:22.331Z,23.50
2023-02-07T01:49:51.928Z,21.77
2023-02-07T01:52:23.233Z,24.13
2023-02-07T01:54:58.717Z,23.70
2023-02-07T01:57:25.933Z,23.23
2023-02-07T01:59:57.101Z,23.50
2023-02-07T02:02:25.161Z,23.63
2023-02-07T02:04:52.223Z,29.00
2023-02-07T02:07:19.206Z,27.63
2023-02-07T02:09:45.840Z,21.10
2023-02-07T02:12:27.768Z,23.30
2023-02-07T02:15:08.484Z,25.27
2023-02-07T02:17:59.970Z,24.27
2023-02-07T02:20:38.082Z,24.20
2023-02-07T02:23:12.465Z,19.03
2023-02-07T02:25:51.195Z,24.10
2023-02-07T02:28:36.694Z,24.97
2023-02-07T02:31:37.127Z,20.47
2023-02-07T02:34:26.944Z,24.00
2023-02-07T02:36:59.493Z,22.40
2023-02-07T02:39:39.723Z,24.27
2023-02-07T02:42:25.795Z,20.80
2023-02-07T02:44:57.407Z,21.73
2023-02-07T02:47:27.421Z,21.43
2023-02-07T02:49:54.151Z,26.47
2023-02-07T02:52:20.792Z,22.97
2023-02-07T02:54:47.549Z,17.03
2023-02-07T02:58:08.842Z,22.87
2023-02-07T03:00:39.701Z,22.53
2023-02-07T03:03:35.524Z,25.33
2023-02-07T03:06:39.911Z,25.03
2023-02-07T03:09:14.610Z,22.00
2023-02-07T03:11:50.617Z,20.97
2023-02-07T03:14:30.443Z,22.70
2023-02-07T03:17:21.926Z,22.03
2023-02-07T03:20:12.647Z,21.73
2023-02-07T03:22:39.824Z,25.43
2023-02-07T03:25:08.000Z,28.57
2023-02-07T03:27:37.091Z,25.33
2023-02-07T03:30:07.837Z,19.57
2023-02-07T03:32:37.598Z,19.67
2023-02-07T03:35:09.842Z,24.97
2023-02-07T03:37:42.191Z,20.87
2023-02-07T03:40:09.597Z,27.83
2023-02-07T03:42:51.164Z,21.93
2023-02-07T03:45:19.910Z,20.40
2023-02-07T03:47:46.916Z,18.43
2023-02-07T03:50:14.456Z,22.37
2023-02-07T03:52:41.106Z,24.40
2023-02-07T03:55:08.466Z,26.87
2023-02-07T03:57:35.243Z,25.30
2023-02-07T04:00:02.011Z,25.70
2023-02-07T04:02:39.213Z,24.10
2023-02-07T04:05:06.557Z,22.13
2023-02-07T04:07:33.360Z,21.97
2023-02-07T04:09:59.966Z,21.83
2023-02-07T04:12:32.779Z,24.60
2023-02-07T04:15:04.269Z,29.73
2023-02-07T04:17:31.467Z,22.83
2023-02-07T04:19:58.559Z,24.23
2023-02-07T04:22:25.183Z,24.83
2023-02-07T04:24:52.127Z,20.63
2023-02-07T04:27:18.816Z,21.93
2023-02-07T04:29:45.475Z,28.40
2023-02-07T04:32:12.165Z,24.00
2023-02-07T04:34:38.912Z,23.27
2023-02-07T04:37:05.626Z,25.13
2023-02-07T04:39:32.254Z,25.07
2023-02-07T04:41:59.162Z,26.53
2023-02-07T04:44:25.819Z,26.00
2023-02-07T04:46:52.489Z,30.13
2023-02-07T04:49:19.123Z,29.10
2023-02-07T04:51:45.834Z,28.60
2023-02-07T04:54:13.971Z,30.33
2023-02-07T04:56:40.613Z,30.47
2023-02-07T04:59:07.248Z,25.73
2023-02-07T05:01:33.914Z,30.23
2023-02-07T05:04:00.564Z,22.40
2023-02-07T05:06:27.209Z,28.83
2023-02-07T05:08:53.894Z,25.33
2023-02-07T05:11:21.038Z,23.80
2023-02-07T05:13:47.713Z,23.87
2023-02-07T05:16:14.568Z,30.83
2023-02-07T05:18:41.284Z,30.30
2023-02-07T05:21:07.934Z,29.97
2023-02-07T05:23:34.573Z,29.17
2023-02-07T05:26:01.184Z,28.60
2023-02-07T05:28:27.792Z,34.03
2023-02-07T05:30:56.232Z,35.87
2023-02-07T05:33:22.922Z,43.47
2023-02-07T05:35:49.529Z,31.10
2023-02-07T05:38:17.770Z,53.53
2023-02-07T05:40:45.014Z,38.00
2023-02-07T05:43:12.545Z,32.20
2023-02-07T05:45:39.986Z,29.30
2023-02-07T05:48:07.108Z,25.40
2023-02-07T05:50:34.579Z,26.97
2023-02-07T05:53:10.018Z,26.83
2023-02-07T05:55:37.295Z,24.73
2023-02-07T05:58:04.485Z,25.60
2023-02-07T06:00:31.261Z,28.57
2023-02-07T06:02:57.928Z,23.50
2023-02-07T06:05:24.893Z,35.07
2023-02-07T06:07:51.850Z,28.57
2023-02-07T06:10:18.775Z,25.33
2023-02-07T06:12:45.535Z,28.10
2023-02-07T06:15:12.235Z,34.43
2023-02-07T06:17:38.890Z,27.03
2023-02-07T06:20:06.027Z,30.30
2023-02-07T06:22:32.665Z,32.47
2023-02-07T06:25:01.938Z,28.13
2023-02-07T06:27:28.589Z,26.17
2023-02-07T06:29:55.668Z,29.13
2023-02-07T06:32:22.244Z,30.70
2023-02-07T06:34:48.880Z,38.17
2023-02-07T06:37:15.518Z,32.90
2023-02-07T06:39:42.273Z,35.47
2023-02-07T06:42:08.968Z,32.53
2023-02-07T06:44:35.631Z,26.37
2023-02-07T06:47:02.307Z,40.73
2023-02-07T06:49:29.012Z,26.60
2023-02-07T06:51:55.685Z,30.67
2023-02-07T06:54:22.432Z,22.53
2023-02-07T06:56:49.121Z,35.17
2023-02-07T06:59:15.911Z,35.60
2023-02-07T07:01:42.651Z,29.40
2023-02-07T07:04:09.444Z,29.53
2023-02-07T07:06:36.217Z,26.13
2023-02-07T07:09:04.893Z,25.40
2023-02-07T07:11:31.721Z,30.77
2023-02-07T07:14:00.278Z,36.23
2023-02-07T07:16:26.953Z,29.43
2023-02-07T07:18:53.577Z,30.83
2023-02-07T07:21:20.248Z,31.63
2023-02-07T07:23:47.409Z,34.67
2023-02-07T07:26:14.130Z,26.83
2023-02-07T07:28:40.766Z,28.07
2023-02-07T07:31:08.280Z,32.70
2023-02-07T07:33:35.470Z,29.77
2023-02-07T07:36:03.129Z,30.23
2023-02-07T07:38:30.529Z,31.43
2023-02-07T07:40:57.449Z,33.73
2023-02-07T07:43:24.318Z,26.47
2023-02-07T07:45:55.874Z,33.23
2023-02-07T07:48:23.727Z,28.50
2023-02-07T07:50:50.773Z,34.03
2023-02-07T07:53:18.443Z,35.53
2023-02-07T07:55:52.888Z,37.23
2023-02-07T07:58:20.276Z,30.90
2023-02-07T08:00:48.011Z,33.03
2023-02-07T08:03:15.708Z,34.57
2023-02-07T08:05:43.825Z,30.40
2023-02-07T08:08:10.576Z,36.53
2023-02-07T08:10:38.060Z,33.03
2023-02-07T08:13:05.149Z,30.30
2023-02-07T08:15:32.026Z,32.87
2023-02-07T08:17:58.696Z,29.53
2023-02-07T08:20:25.330Z,36.40
2023-02-07T08:22:52.055Z,36.33
2023-02-07T08:25:18.776Z,35.17
2023-02-07T08:27:45.791Z,32.40
2023-02-07T08:30:13.516Z,41.53
2023-02-07T08:32:41.508Z,37.27
2023-02-07T08:35:09.414Z,35.73
2023-02-07T08:37:36.193Z,33.17
2023-02-07T08:40:05.187Z,45.80
2023-02-07T08:42:32.051Z,34.80
2023-02-07T08:44:58.798Z,33.10
2023-02-07T08:47:25.465Z,41.37
2023-02-07T08:49:52.092Z,36.77
2023-02-07T08:52:18.840Z,34.27
2023-02-07T08:54:45.414Z,34.40
2023-02-07T08:57:12.121Z,34.33
2023-02-07T08:59:38.757Z,39.90
2023-02-07T09:02:05.429Z,35.43
2023-02-07T09:04:32.621Z,38.83
2023-02-07T09:06:59.267Z,37.10
2023-02-07T09:09:25.902Z,40.33
2023-02-07T09:11:52.558Z,36.40
2023-02-07T09:14:21.795Z,37.80
2023-02-07T09:16:48.436Z,41.27
2023-02-07T09:19:15.050Z,35.73
2023-02-07T09:21:41.696Z,38.13
2023-02-07T09:24:08.623Z,32.67
2023-02-07T09:26:36.210Z,37.20
2023-02-07T09:29:02.940Z,38.90
2023-02-07T09:31:29.712Z,40.55
2023-02-07T09:33:56.492Z,37.55
2023-02-07T09:36:29.267Z,40.83
2023-02-07T09:38:56.561Z,37.23
2023-02-07T09:41:41.993Z,35.28
2023-02-07T09:44:16.547Z,36.50
2023-02-07T09:46:46.558Z,37.27
2023-02-07T09:49:17.943Z,35.90
2023-02-07T09:51:45.818Z,31.45
2023-02-07T09:54:21.157Z,30.35
2023-02-07T09:56:47.941Z,33.07
2023-02-07T09:59:25.357Z,31.40
2023-02-07T10:01:57.846Z,30.65
2023-02-07T10:04:26.605Z,29.20
2023-02-07T10:06:57.126Z,34.63
2023-02-07T10:09:38.458Z,25.23
2023-02-07T10:12:23.370Z,26.33
2023-02-07T10:15:19.732Z,34.83
2023-02-07T10:18:11.877Z,31.40
2023-02-07T10:20:43.429Z,31.37
2023-02-07T10:23:30.250Z,33.63
2023-02-07T10:26:05.093Z,27.80
2023-02-07T10:28:47.909Z,29.53
2023-02-07T10:31:17.364Z,28.00
2023-02-07T10:33:49.490Z,24.00
2023-02-07T10:36:17.137Z,25.25
2023-02-07T10:39:07.719Z,23.52
2023-02-07T10:41:38.988Z,25.75
2023-02-07T10:44:08.191Z,26.80
2023-02-07T10:46:35.324Z,27.83
2023-02-07T10:49:02.321Z,24.05
2023-02-07T10:51:39.102Z,30.55
2023-02-07T10:54:10.167Z,24.02
2023-02-07T10:56:43.116Z,32.20
2023-02-07T10:59:45.377Z,33.65
2023-02-07T11:02:37.536Z,29.00
2023-02-07T11:05:16.311Z,26.08
2023-02-07T11:08:01.031Z,26.15
2023-02-07T11:10:36.904Z,25.27
2023-02-07T11:13:05.350Z,21.25
2023-02-07T11:15:45.506Z,21.67
2023-02-07T11:18:45.674Z,19.42
2023-02-07T11:21:22.088Z,19.40
2023-02-07T11:23:49.860Z,16.85
2023-02-07T11:26:18.354Z,14.65
2023-02-07T11:28:45.085Z,17.73
2023-02-07T11:31:16.629Z,15.93
2023-02-07T11:33:43.437Z,12.50
2023-02-07T11:36:22.940Z,11.55
2023-02-07T11:38:53.986Z,11.93
2023-02-07T11:41:24.490Z,14.57
2023-02-07T11:43:53.580Z,11.27
2023-02-07T11:46:20.305Z,12.50
2023-02-07T11:48:48.759Z,11.88
2023-02-07T11:51:17.504Z,8.45
2023-02-07T11:53:57.181Z,13.45
2023-02-07T11:56:36.787Z,11.23
2023-02-07T11:59:15.971Z,10.43
2023-02-07T12:01:45.037Z,9.13
2023-02-07T12:04:20.743Z,10.13
2023-02-07T12:06:56.084Z,11.05
2023-02-07T12:09:36.128Z,8.88
2023-02-07T12:12:05.877Z,10.98
2023-02-07T12:14:40.810Z,9.75
2023-02-07T12:17:14.357Z,10.88
2023-02-07T12:20:13.716Z,12.95
2023-02-07T12:23:00.133Z,11.13
2023-02-07T12:25:41.404Z,11.32
2023-02-07T12:28:15.683Z,11.02
2023-02-07T12:30:45.945Z,12.27
2023-02-07T12:33:24.734Z,10.48
2023-02-07T12:36:11.265Z,10.68
2023-02-07T12:38:44.540Z,9.10
2023-02-07T12:41:26.491Z,9.15
2023-02-07T12:43:56.007Z,8.82
2023-02-07T12:47:05.443Z,9.18
2023-02-07T12:50:10.823Z,7.93
2023-02-07T12:53:09.655Z,9.40
2023-02-07T12:55:53.053Z,7.88
2023-02-07T12:58:44.580Z,9.27
2023-02-07T13:01:26.204Z,6.75
2023-02-07T13:04:20.757Z,8.93
2023-02-07T13:06:50.692Z,6.22
2023-02-07T13:09:29.455Z,6.50
2023-02-07T13:11:58.960Z,6.78
2023-02-07T13:14:58.916Z,11.23
2023-02-07T13:17:41.271Z,6.78
2023-02-07T13:20:26.230Z,7.85
2023-02-07T13:23:09.568Z,5.68
2023-02-07T13:25:42.640Z,6.90
2023-02-07T13:28:21.498Z,7.15
2023-02-07T13:30:49.043Z,6.70
2023-02-07T13:33:34.053Z,6.03
2023-02-07T13:36:07.805Z,6.68
2023-02-07T13:38:46.062Z,5.75
2023-02-07T13:41:29.915Z,6.00
2023-02-07T13:44:09.350Z,6.93
2023-02-07T13:46:46.851Z,7.55
2023-02-07T13:49:42.722Z,7.25
2023-02-07T13:52:17.015Z,5.32
2023-02-07T13:54:52.731Z,5.78
2023-02-07T13:57:58.233Z,8.18
2023-02-07T14:00:27.947Z,10.85
2023-02-07T14:02:58.133Z,6.72
2023-02-07T14:05:33.878Z,8.90
2023-02-07T14:08:03.620Z,8.88
2023-02-07T14:10:45.687Z,8.20
2023-02-07T14:13:21.505Z,6.93
2023-02-07T14:16:08.957Z,6.65
2023-02-07T14:18:52.634Z,6.93
2023-02-07T14:21:19.627Z,10.57
2023-02-07T14:24:01.550Z,9.40
2023-02-07T14:26:40.450Z,9.18
2023-02-07T14:29:22.727Z,5.97
2023-02-07T14:31:58.231Z,5.28
2023-02-07T14:34:29.896Z,6.55
2023-02-07T14:36:57.256Z,6.65
2023-02-07T14:39:29.919Z,7.65
2023-02-07T14:42:12.514Z,4.55
2023-02-07T14:44:41.758Z,6.65
2023-02-07T14:47:26.510Z,6.45
2023-02-07T14:49:56.640Z,5.85
2023-02-07T14:52:27.505Z,6.07
2023-02-07T14:55:17.252Z,7.80
2023-02-07T14:58:09.488Z,5.90
2023-02-07T15:00:50.488Z,5.75
2023-02-07T15:03:19.248Z,4.78
2023-02-07T15:05:54.307Z,6.28
2023-02-07T15:08:23.218Z,4.90
2023-02-07T15:10:53.280Z,5.30
2023-02-07T15:13:44.246Z,5.97
2023-02-07T15:16:23.129Z,7.97
2023-02-07T15:18:56.706Z,10.55
2023-02-07T15:21:30.448Z,6.57
2023-02-07T15:24:04.887Z,5.80
2023-02-07T15:26:32.514Z,6.93
2023-02-07T15:29:01.484Z,7.28
2023-02-07T15:31:28.830Z,5.68
2023-02-07T15:33:58.037Z,10.82
2023-02-07T15:36:35.388Z,10.40
2023-02-07T15:39:05.666Z,7.53
2023-02-07T15:41:32.574Z,6.88
2023-02-07T15:44:08.617Z,8.57
2023-02-07T15:47:06.956Z,7.28
2023-02-07T15:49:40.714Z,12.02
2023-02-07T15:52:24.589Z,6.88
2023-02-07T15:54:52.967Z,9.13
2023-02-07T15:57:19.565Z,10.52
2023-02-07T15:59:51.983Z,9.65
2023-02-07T16:02:26.128Z,10.20
2023-02-07T16:04:52.817Z,10.57
2023-02-07T16:07:21.933Z,11.40
2023-02-07T16:09:49.080Z,10.40
2023-02-07T16:12:44.228Z,12.35
2023-02-07T16:15:28.154Z,13.77
2023-02-07T16:17:55.619Z,17.15
2023-02-07T16:20:22.943Z,15.18
2023-02-07T16:22:50.475Z,12.02
2023-02-07T16:25:20.309Z,17.92
2023-02-07T16:27:48.882Z,15.02
2023-02-07T16:30:19.035Z,14.70
2023-02-07T16:32:46.103Z,12.90
2023-02-07T16:35:20.545Z,16.00
2023-02-07T16:37:47.600Z,18.23
2023-02-07T16:40:14.479Z,16.65
2023-02-07T16:42:42.365Z,19.33
2023-02-07T16:45:28.848Z,17.80
2023-02-07T16:47:57.038Z,24.08
2023-02-07T16:50:26.673Z,17.80
2023-02-07T16:52:56.839Z,22.08
2023-02-07T16:55:26.954Z,19.35
2023-02-07T16:57:54.793Z,27.38
2023-02-07T17:00:26.276Z,26.58
2023-02-07T17:02:53.659Z,31.35
2023-02-07T17:05:24.013Z,28.00
2023-02-07T17:07:50.995Z,27.67
2023-02-07T17:10:30.410Z,18.90
2023-02-07T17:12:57.109Z,25.73
2023-02-07T17:15:23.788Z,19.27
2023-02-07T17:17:52.902Z,21.50
2023-02-07T17:20:25.119Z,23.73
2023-02-07T17:22:52.908Z,23.10
2023-02-07T17:25:21.378Z,21.55
2023-02-07T17:27:48.210Z,27.98
2023-02-07T17:30:20.295Z,27.50
2023-02-07T17:32:47.028Z,27.10
2023-02-07T17:35:14.397Z,27.00
2023-02-07T17:37:41.465Z,29.10
2023-02-07T17:40:25.742Z,25.33
2023-02-07T17:42:52.356Z,31.85
2023-02-07T17:45:19.307Z,24.45
2023-02-07T17:47:46.246Z,27.25
2023-02-07T17:50:19.555Z,28.90
2023-02-07T17:52:46.722Z,28.30
2023-02-07T17:55:14.460Z,25.10
2023-02-07T17:57:41.740Z,27.90
2023-02-07T18:00:14.652Z,34.85
2023-02-07T18:02:42.720Z,31.98
2023-02-07T18:05:10.151Z,34.90
2023-02-07T18:07:36.829Z,29.93
2023-02-07T18:10:06.616Z,30.00
2023-02-07T18:12:34.384Z,31.80
2023-02-07T18:15:03.275Z,31.13
2023-02-07T18:17:29.908Z,33.37
2023-02-07T18:19:56.612Z,32.50
2023-02-07T18:22:23.254Z,34.40
2023-02-07T18:24:49.852Z,32.83
2023-02-07T18:27:18.465Z,37.60
2023-02-07T18:29:45.885Z,25.27
2023-02-07T18:32:13.020Z,39.53
2023-02-07T18:34:40.498Z,30.53
2023-02-07T18:37:07.271Z,31.97
2023-02-07T18:39:33.910Z,34.23
2023-02-07T18:42:01.196Z,31.40
2023-02-07T18:44:28.287Z,29.27
2023-02-07T18:46:54.910Z,29.17
2023-02-07T18:49:23.169Z,32.70
2023-02-07T18:51:49.992Z,26.17
2023-02-07T18:54:16.625Z,29.67
2023-02-07T18:56:47.480Z,30.70
2023-02-07T18:59:17.994Z,26.30
2023-02-07T19:01:48.096Z,30.20
2023-02-07T19:04:15.678Z,32.90
2023-02-07T19:06:42.840Z,32.73
2023-02-07T19:09:09.932Z,38.60
2023-02-07T19:11:37.900Z,33.37
2023-02-07T19:14:10.874Z,32.70
2023-02-07T19:16:37.510Z,35.63
2023-02-07T19:19:04.372Z,33.23
2023-02-07T19:21:31.176Z,33.97
2023-02-07T19:23:58.481Z,34.70
2023-02-07T19:26:25.564Z,35.27
2023-02-07T19:28:52.881Z,37.60
2023-02-07T19:31:20.378Z,40.47
2023-02-07T19:33:49.061Z,43.80
2023-02-07T19:36:18.964Z,39.83
2023-02-07T19:38:48.603Z,41.80
2023-02-07T19:41:15.864Z,43.73
2023-02-07T19:43:43.334Z,38.30
2023-02-07T19:46:10.017Z,40.53
2023-02-07T19:48:36.604Z,36.97
2023-02-07T19:51:06.570Z,47.23
2023-02-07T19:53:33.591Z,43.43
2023-02-07T19:56:06.070Z,41.33
2023-02-07T19:58:33.736Z,39.13
2023-02-07T20:01:01.478Z,42.87
2023-02-07T20:03:29.009Z,40.50
2023-02-07T20:05:59.363Z,35.70
2023-02-07T20:08:26.194Z,49.67
2023-02-07T20:10:52.922Z,41.33
2023-02-07T20:13:19.568Z,43.27
2023-02-07T20:15:47.059Z,56.00
2023-02-07T20:18:14.162Z,47.87
2023-02-07T20:20:42.407Z,41.13
2023-02-07T20:23:09.555Z,51.30
2023-02-07T20:25:37.662Z,44.90
2023-02-07T20:28:05.733Z,39.57
2023-02-07T20:30:32.929Z,42.53
2023-02-07T20:32:59.612Z,45.07
2023-02-07T20:35:26.330Z,49.30
2023-02-07T20:37:52.993Z,45.13
2023-02-07T20:40:19.655Z,42.27
2023-02-07T20:42:46.378Z,41.07
2023-02-07T20:45:13.054Z,44.67
2023-02-07T20:47:39.712Z,45.33
2023-02-07T20:50:06.908Z,45.80
2023-02-07T20:52:33.729Z,45.73
2023-02-07T20:55:00.477Z,44.00
2023-02-07T20:57:27.230Z,47.97
2023-02-07T20:59:53.881Z,36.10
2023-02-07T21:02:20.544Z,44.67
2023-02-07T21:04:47.201Z,42.50
2023-02-07T21:07:14.029Z,43.00
2023-02-07T21:09:40.808Z,42.10
2023-02-07T21:12:07.825Z,37.47
2023-02-07T21:14:34.819Z,54.50
2023-02-07T21:17:06.209Z,44.53
2023-02-07T21:19:33.715Z,44.83
2023-02-07T21:22:00.327Z,55.30
2023-02-07T21:24:27.166Z,48.83
2023-02-07T21:26:55.217Z,53.20
2023-02-07T21:29:23.307Z,56.23
2023-02-07T21:31:50.246Z,62.70
2023-02-07T21:34:20.891Z,66.30
2023-02-07T21:36:48.444Z,56.90
2023-02-07T21:39:15.510Z,64.03
2023-02-07T21:41:43.753Z,55.83
2023-02-07T21:44:11.278Z,56.03
2023-02-07T21:46:42.422Z,47.63
2023-02-07T21:49:14.662Z,54.40
2023-02-07T21:51:42.319Z,52.90
2023-02-07T21:54:09.349Z,49.63
2023-02-07T21:56:38.639Z,49.03
2023-02-07T21:59:10.006Z,46.00
2023-02-07T22:01:36.705Z,42.27
2023-02-07T22:04:10.420Z,50.10
2023-02-07T22:06:38.424Z,48.20
2023-02-07T22:09:05.412Z,47.83
2023-02-07T22:11:34.078Z,48.87
2023-02-07T22:14:01.674Z,46.00
2023-02-07T22:16:29.470Z,38.97
2023-02-07T22:18:57.955Z,45.23
2023-02-07T22:21:27.008Z,51.93
2023-02-07T22:23:54.127Z,45.17
2023-02-07T22:26:21.934Z,43.83
2023-02-07T22:28:48.637Z,42.97
2023-02-07T22:31:19.302Z,45.77
2023-02-07T22:33:46.932Z,43.27
2023-02-07T22:36:18.055Z,45.20
2023-02-07T22:38:44.787Z,42.03
2023-02-07T22:41:11.528Z,44.27
2023-02-07T22:43:41.448Z,43.20
2023-02-07T22:46:11.038Z,49.53
2023-02-07T22:48:37.759Z,43.00
2023-02-07T22:51:26.769Z,44.53
2023-02-07T22:53:57.326Z,48.13
2023-02-07T22:56:24.725Z,46.73
2023-02-07T22:58:51.371Z,53.23
2023-02-07T23:01:19.277Z,46.13
2023-02-07T23:03:45.996Z,47.67
2023-02-07T23:06:12.671Z,50.97
2023-02-07T23:08:39.340Z,45.50
2023-02-07T23:11:10.407Z,46.90
2023-02-07T23:13:37.056Z,54.50
2023-02-07T23:16:03.896Z,47.93
2023-02-07T23:18:30.667Z,47.57
2023-02-07T23:20:57.335Z,43.03
2023-02-07T23:23:24.386Z,40.27
2023-02-07T23:25:51.080Z,45.87
2023-02-07T23:28:17.712Z,41.40
2023-02-07T23:30:44.566Z,44.93
2023-02-07T23:33:11.387Z,43.47
2023-02-07T23:35:38.048Z,44.30
2023-02-07T23:38:06.284Z,48.57
2023-02-07T23:40:33.222Z,43.67
2023-02-07T23:42:59.891Z,41.73
2023-02-07T23:45:26.517Z,47.80
2023-02-07T23:47:53.748Z,45.83
2023-02-07T23:50:22.251Z,43.80
2023-02-07T23:52:48.839Z,47.57
2023-02-07T23:55:15.501Z,43.73
2023-02-07T23:57:42.080Z,47.70
